Time;durP1;ratioP1;P1;durP2;ratioP2;P2;SDS_P1;SDS_P2;PMS_P1;PMS_P2;Temp;Humidity;BMP_temperature;BMP_pressure;BME280_temperature;BME280_humidity;BME280_pressure;Samples;Min_cycle;Max_cycle;Signal;HPM_P1;HPM_P2
2021/12/20 00:00:38;;;;;;;91.85;17.67;;;;;;;;;;5074274;28;20224;-63
2021/12/20 00:03:05;;;;;;;91.18;16.30;;;;;;;;;;5074162;28;20585;-64
2021/12/20 00:05:32;;;;;;;89.75;17.00;;;;;;;;;;5074004;28;20213;-64
2021/12/20 00:08:01;;;;;;;78.15;15.00;;;;;;;;;;5073596;28;20221;-64
2021/12/20 00:10:28;;;;;;;86.88;15.80;;;;;;;;;;5073687;28;20232;-64
2021/12/20 00:12:55;;;;;;;81.40;17.20;;;;;;;;;;5074106;28;20205;-63
2021/12/20 00:15:22;;;;;;;84.50;16.70;;;;;;;;;;5074106;28;20205;-64
2021/12/20 00:17:50;;;;;;;80.50;15.50;;;;;;;;;;5071993;28;20653;-64
2021/12/20 00:20:18;;;;;;;85.10;15.82;;;;;;;;;;5073617;28;20229;-64
2021/12/20 00:22:45;;;;;;;85.60;17.42;;;;;;;;;;5073684;28;20299;-63
2021/12/20 00:25:14;;;;;;;81.45;14.98;;;;;;;;;;5073321;28;20219;-64
2021/12/20 00:27:41;;;;;;;82.30;16.92;;;;;;;;;;5090403;28;20235;-64
2021/12/20 00:30:10;;;;;;;83.25;16.50;;;;;;;;;;5093752;28;20323;-65
2021/12/20 00:32:37;;;;;;;90.22;18.88;;;;;;;;;;5093694;28;20214;-64
2021/12/20 00:35:04;;;;;;;85.22;16.02;;;;;;;;;;5093510;28;20668;-64
2021/12/20 00:40:21;;;;;;;85.60;17.00;;;;;;;;;;5093678;28;20219;-64
2021/12/20 00:42:49;;;;;;;85.43;17.08;;;;;;;;;;5093683;28;20534;-64
2021/12/20 00:45:16;;;;;;;81.13;14.73;;;;;;;;;;5093491;28;20208;-64
2021/12/20 00:47:44;;;;;;;84.22;14.77;;;;;;;;;;5093167;28;20311;-64
2021/12/20 00:50:12;;;;;;;81.43;15.43;;;;;;;;;;5091381;28;20313;-64
2021/12/20 00:52:39;;;;;;;87.68;16.08;;;;;;;;;;5093255;28;20211;-64
2021/12/20 00:55:07;;;;;;;80.63;14.88;;;;;;;;;;5093142;28;20668;-64
2021/12/20 00:57:35;;;;;;;80.20;14.13;;;;;;;;;;5093129;28;20196;-64
2021/12/20 01:00:02;;;;;;;86.95;14.85;;;;;;;;;;5093074;28;20251;-64
2021/12/20 01:02:30;;;;;;;85.80;15.95;;;;;;;;;;5093035;28;20210;-65
2021/12/20 01:04:57;;;;;;;80.10;15.02;;;;;;;;;;5092987;28;20204;-64
2021/12/20 01:07:24;;;;;;;77.32;16.15;;;;;;;;;;5092823;28;20323;-64
2021/12/20 01:09:53;;;;;;;80.38;14.48;;;;;;;;;;5092525;28;20262;-64
2021/12/20 01:12:21;;;;;;;81.95;15.60;;;;;;;;;;5092877;28;20204;-64
2021/12/20 01:14:57;;;;;;;77.45;14.45;;;;;;;;;;5092828;28;20207;-65
2021/12/20 01:17:24;;;;;;;77.95;14.23;;;;;;;;;;5092449;28;20269;-64
2021/12/20 01:19:52;;;;;;;86.63;16.05;;;;;;;;;;5092989;28;20715;-64
2021/12/20 01:22:19;;;;;;;79.13;14.73;;;;;;;;;;5088042;28;20312;-65
2021/12/20 01:24:46;;;;;;;79.25;13.60;;;;;;;;;;5072273;28;20304;-65
2021/12/20 01:27:13;;;;;;;87.53;14.93;;;;;;;;;;5072018;28;20315;-64
2021/12/20 01:29:40;;;;;;;80.75;15.40;;;;;;;;;;5072139;28;20229;-65
2021/12/20 01:32:09;;;;;;;82.53;15.63;;;;;;;;;;5072305;28;20205;-65
2021/12/20 01:34:36;;;;;;;84.88;14.68;;;;;;;;;;5072342;28;20211;-66
2021/12/20 01:37:03;;;;;;;79.93;14.25;;;;;;;;;;5072590;28;20292;-65
2021/12/20 01:39:31;;;;;;;80.78;14.70;;;;;;;;;;5071994;28;20239;-64
2021/12/20 01:41:59;;;;;;;79.65;14.88;;;;;;;;;;5072400;28;20255;-64
2021/12/20 01:44:26;;;;;;;82.22;14.15;;;;;;;;;;5072000;28;20751;-65
2021/12/20 01:46:53;;;;;;;78.63;13.25;;;;;;;;;;5072143;28;20296;-64
2021/12/20 01:49:22;;;;;;;82.38;14.80;;;;;;;;;;5071834;28;20204;-65
2021/12/20 01:52:02;;;;;;;83.22;15.40;;;;;;;;;;5072085;28;20672;-65
2021/12/20 01:54:29;;;;;;;85.03;16.05;;;;;;;;;;5070722;28;20595;-65
2021/12/20 01:56:56;;;;;;;81.82;15.00;;;;;;;;;;5071786;28;20212;-65
2021/12/20 01:59:24;;;;;;;76.25;13.63;;;;;;;;;;5071814;28;20200;-64
2021/12/20 02:01:52;;;;;;;84.20;14.88;;;;;;;;;;5072257;28;20208;-65
2021/12/20 02:04:21;;;;;;;78.50;14.77;;;;;;;;;;5071928;28;20215;-65
2021/12/20 02:06:50;;;;;;;77.57;14.10;;;;;;;;;;5071737;28;20574;-65
2021/12/20 02:09:18;;;;;;;77.38;14.75;;;;;;;;;;5071304;28;20281;-65
2021/12/20 02:11:46;;;;;;;83.30;16.08;;;;;;;;;;5071724;28;20292;-65
2021/12/20 02:14:14;;;;;;;81.35;14.30;;;;;;;;;;5071928;28;20227;-65
2021/12/20 02:16:41;;;;;;;79.13;14.73;;;;;;;;;;5071753;28;20209;-64
2021/12/20 02:19:09;;;;;;;81.88;14.32;;;;;;;;;;5071558;28;20201;-63
2021/12/20 02:21:39;;;;;;;82.28;15.27;;;;;;;;;;5071463;28;20207;-64
2021/12/20 02:24:06;;;;;;;81.57;14.52;;;;;;;;;;5071483;28;20217;-63
2021/12/20 02:26:35;;;;;;;81.63;13.57;;;;;;;;;;5076879;28;20204;-65
2021/12/20 02:29:05;;;;;;;79.35;13.70;;;;;;;;;;5091406;28;20232;-65
2021/12/20 02:37:19;;;;;;;80.25;13.88;;;;;;;;;;5091686;28;20203;-65
2021/12/20 02:39:47;;;;;;;80.35;14.65;;;;;;;;;;5091573;28;20609;-65
2021/12/20 02:42:18;;;;;;;85.30;15.07;;;;;;;;;;5091821;28;20234;-64
2021/12/20 02:44:52;;;;;;;84.07;15.45;;;;;;;;;;5091616;28;20239;-64
2021/12/20 02:47:28;;;;;;;80.70;14.90;;;;;;;;;;5091285;28;20210;-65
2021/12/20 02:49:56;;;;;;;81.85;14.20;;;;;;;;;;5091599;28;20319;-64
2021/12/20 02:52:24;;;;;;;82.55;14.32;;;;;;;;;;5091392;28;20210;-65
2021/12/20 02:54:52;;;;;;;82.50;14.80;;;;;;;;;;5091471;28;20208;-64
2021/12/20 02:57:19;;;;;;;75.88;13.80;;;;;;;;;;5091001;28;20250;-67
2021/12/20 02:59:47;;;;;;;80.60;14.68;;;;;;;;;;5070549;28;20309;-65
2021/12/20 03:02:14;;;;;;;79.10;13.15;;;;;;;;;;5071310;28;20211;-64
2021/12/20 03:04:41;;;;;;;82.50;15.88;;;;;;;;;;5071057;28;20215;-64
2021/12/20 03:07:10;;;;;;;81.43;14.05;;;;;;;;;;5070686;28;20207;-64
2021/12/20 03:09:42;;;;;;;78.10;14.55;;;;;;;;;;5071252;28;20228;-66
2021/12/20 03:12:12;;;;;;;89.20;16.40;;;;;;;;;;5071213;28;20723;-65
2021/12/20 03:14:42;;;;;;;80.03;15.52;;;;;;;;;;5071132;28;20269;-65
2021/12/20 03:17:09;;;;;;;81.85;16.48;;;;;;;;;;5070921;28;20669;-65
2021/12/20 03:19:37;;;;;;;80.97;14.95;;;;;;;;;;5070863;28;20312;-64
2021/12/20 03:22:04;;;;;;;84.40;15.45;;;;;;;;;;5071327;28;20212;-65
2021/12/20 03:24:31;;;;;;;85.10;15.40;;;;;;;;;;5071078;28;20299;-66
2021/12/20 03:27:00;;;;;;;78.93;14.65;;;;;;;;;;5071171;28;20650;-64
2021/12/20 03:29:27;;;;;;;81.38;15.27;;;;;;;;;;5070531;28;20324;-64
2021/12/20 03:31:54;;;;;;;83.90;16.90;;;;;;;;;;5086271;28;20208;-65
2021/12/20 03:34:22;;;;;;;80.25;15.30;;;;;;;;;;5095025;28;20211;-66
2021/12/20 03:36:49;;;;;;;84.38;15.45;;;;;;;;;;5094911;28;20588;-64
2021/12/20 03:39:16;;;;;;;80.10;15.68;;;;;;;;;;5094637;28;20287;-65
2021/12/20 03:41:44;;;;;;;83.70;14.20;;;;;;;;;;5095124;28;20204;-64
2021/12/20 03:44:12;;;;;;;79.90;15.93;;;;;;;;;;5094626;28;20295;-64
2021/12/20 03:46:39;;;;;;;81.85;15.20;;;;;;;;;;5094360;28;20707;-64
2021/12/20 03:49:07;;;;;;;79.10;14.75;;;;;;;;;;5094395;28;20230;-65
2021/12/20 03:51:34;;;;;;;79.85;14.32;;;;;;;;;;5094629;28;20311;-65
2021/12/20 03:54:02;;;;;;;79.90;14.75;;;;;;;;;;5094525;28;20204;-64
2021/12/20 03:56:29;;;;;;;79.75;14.75;;;;;;;;;;5094861;28;20200;-65
2021/12/20 03:58:56;;;;;;;79.18;14.75;;;;;;;;;;5094104;28;20200;-66
2021/12/20 04:01:25;;;;;;;83.00;14.70;;;;;;;;;;5094241;28;20327;-65
2021/12/20 04:03:53;;;;;;;81.40;14.80;;;;;;;;;;5092619;28;20211;-65
2021/12/20 04:06:20;;;;;;;80.05;15.52;;;;;;;;;;5094350;28;20640;-64
2021/12/20 04:08:48;;;;;;;83.00;14.73;;;;;;;;;;5093953;28;20223;-65
2021/12/20 04:11:15;;;;;;;82.50;14.60;;;;;;;;;;5094163;28;20228;-65
2021/12/20 04:13:42;;;;;;;83.35;14.73;;;;;;;;;;5093945;28;20739;-64
2021/12/20 04:16:09;;;;;;;82.78;14.90;;;;;;;;;;5094010;28;20215;-65
2021/12/20 04:18:38;;;;;;;80.07;14.88;;;;;;;;;;5093844;28;20196;-65
2021/12/20 04:21:05;;;;;;;84.00;16.25;;;;;;;;;;5093820;28;20716;-64
2021/12/20 04:23:32;;;;;;;82.75;15.80;;;;;;;;;;5094174;28;20295;-64
2021/12/20 04:25:59;;;;;;;81.57;15.02;;;;;;;;;;5093964;28;20208;-64
2021/12/20 04:28:27;;;;;;;80.45;14.88;;;;;;;;;;5093426;28;20319;-64
2021/12/20 04:30:54;;;;;;;85.93;14.52;;;;;;;;;;5093927;28;20223;-65
2021/12/20 04:33:21;;;;;;;76.50;13.40;;;;;;;;;;5093584;28;20205;-65
2021/12/20 04:35:50;;;;;;;82.22;14.38;;;;;;;;;;5091868;28;20204;-64
2021/12/20 04:38:17;;;;;;;79.85;14.88;;;;;;;;;;5093398;28;20287;-64
2021/12/20 04:40:44;;;;;;;91.05;14.98;;;;;;;;;;5093378;28;20666;-65
2021/12/20 04:43:12;;;;;;;87.90;17.05;;;;;;;;;;5093733;28;20578;-65
2021/12/20 04:45:39;;;;;;;82.50;14.20;;;;;;;;;;5093346;28;20751;-64
2021/12/20 04:48:06;;;;;;;91.68;15.63;;;;;;;;;;5093146;28;20208;-64
2021/12/20 04:50:33;;;;;;;80.50;14.38;;;;;;;;;;5093426;28;20230;-65
2021/12/20 04:53:02;;;;;;;82.60;16.80;;;;;;;;;;5093330;28;20300;-65
2021/12/20 04:55:30;;;;;;;79.47;14.73;;;;;;;;;;5093144;28;20207;-64
2021/12/20 04:57:57;;;;;;;82.97;14.85;;;;;;;;;;5092945;28;20204;-64
2021/12/20 05:00:26;;;;;;;82.70;15.15;;;;;;;;;;5093292;28;20604;-65
2021/12/20 05:02:54;;;;;;;80.90;14.35;;;;;;;;;;5093297;28;20291;-64
2021/12/20 05:05:22;;;;;;;79.70;14.20;;;;;;;;;;5092787;28;20200;-64
2021/12/20 05:07:49;;;;;;;83.97;15.25;;;;;;;;;;5090528;28;20208;-64
2021/12/20 05:10:26;;;;;;;83.70;14.93;;;;;;;;;;5093151;28;20224;-64
2021/12/20 05:12:54;;;;;;;81.22;14.63;;;;;;;;;;5093184;28;20226;-65
2021/12/20 05:15:21;;;;;;;79.50;14.93;;;;;;;;;;5092793;28;20676;-64
2021/12/20 05:17:48;;;;;;;90.85;15.75;;;;;;;;;;5092528;28;20204;-64
2021/12/20 05:20:16;;;;;;;84.85;16.70;;;;;;;;;;5092725;28;20248;-64
2021/12/20 05:22:43;;;;;;;80.32;14.98;;;;;;;;;;5093159;28;20204;-64
2021/12/20 05:25:10;;;;;;;79.80;15.77;;;;;;;;;;5092589;28;20302;-64
2021/12/20 05:27:39;;;;;;;83.72;15.00;;;;;;;;;;5092673;28;20210;-65
2021/12/20 05:30:07;;;;;;;82.60;15.75;;;;;;;;;;5092670;28;20224;-64
2021/12/20 05:32:36;;;;;;;79.78;15.90;;;;;;;;;;5092707;28;20629;-64
2021/12/20 05:35:04;;;;;;;79.43;13.93;;;;;;;;;;5092923;28;20208;-65
2021/12/20 05:37:31;;;;;;;81.32;15.52;;;;;;;;;;5092235;28;20212;-65
2021/12/20 05:39:58;;;;;;;79.90;13.32;;;;;;;;;;5090823;28;20225;-64
2021/12/20 05:42:25;;;;;;;82.38;14.05;;;;;;;;;;5092586;28;20290;-64
2021/12/20 05:44:55;;;;;;;78.45;14.05;;;;;;;;;;5092257;28;20204;-64
2021/12/20 05:47:22;;;;;;;84.70;14.90;;;;;;;;;;5091962;28;20212;-65
2021/12/20 05:49:49;;;;;;;79.07;14.30;;;;;;;;;;5092390;28;20228;-65
2021/12/20 05:52:16;;;;;;;77.47;14.10;;;;;;;;;;5092473;28;20230;-64
2021/12/20 05:54:44;;;;;;;77.75;12.65;;;;;;;;;;5091694;28;20204;-65
2021/12/20 05:57:11;;;;;;;75.47;13.18;;;;;;;;;;5092069;28;20212;-65
2021/12/20 05:59:38;;;;;;;81.55;14.45;;;;;;;;;;5092069;28;20308;-64
2021/12/20 06:02:07;;;;;;;83.18;14.25;;;;;;;;;;5091907;28;20208;-65
2021/12/20 06:04:34;;;;;;;83.65;16.30;;;;;;;;;;5092343;28;20230;-65
2021/12/20 06:07:02;;;;;;;81.68;15.82;;;;;;;;;;5091849;28;20210;-66
2021/12/20 06:09:29;;;;;;;87.18;14.50;;;;;;;;;;5091455;28;20675;-65
2021/12/20 06:11:59;;;;;;;78.38;13.00;;;;;;;;;;5090050;28;20582;-65
2021/12/20 06:14:26;;;;;;;77.03;13.32;;;;;;;;;;5091898;28;20212;-65
2021/12/20 06:16:55;;;;;;;78.00;14.25;;;;;;;;;;5092017;28;20262;-64
2021/12/20 06:19:24;;;;;;;82.22;15.85;;;;;;;;;;5091912;28;20208;-65
2021/12/20 06:21:51;;;;;;;83.55;14.57;;;;;;;;;;5091783;28;20207;-64
2021/12/20 06:24:19;;;;;;;82.07;15.80;;;;;;;;;;5091768;28;20212;-64
2021/12/20 06:26:46;;;;;;;85.50;15.82;;;;;;;;;;5091732;28;20219;-64
2021/12/20 06:29:13;;;;;;;85.10;15.13;;;;;;;;;;5091155;28;20220;-64
2021/12/20 06:31:41;;;;;;;79.75;14.00;;;;;;;;;;5091862;28;20211;-65
2021/12/20 06:34:08;;;;;;;92.70;16.67;;;;;;;;;;5091959;28;20216;-64
2021/12/20 06:36:36;;;;;;;88.93;16.60;;;;;;;;;;5091854;28;20295;-64
2021/12/20 06:39:05;;;;;;;79.72;14.88;;;;;;;;;;5091844;28;20299;-65
2021/12/20 06:41:32;;;;;;;84.80;14.88;;;;;;;;;;5091519;28;20232;-65
2021/12/20 06:44:01;;;;;;;86.60;16.20;;;;;;;;;;5089955;28;20210;-65
2021/12/20 06:46:29;;;;;;;84.97;18.17;;;;;;;;;;5091664;28;20226;-66
2021/12/20 06:48:56;;;;;;;87.13;17.55;;;;;;;;;;5091348;28;20231;-64
2021/12/20 06:51:23;;;;;;;88.10;17.70;;;;;;;;;;5091558;28;20316;-65
2021/12/20 06:53:51;;;;;;;90.50;16.83;;;;;;;;;;5091503;28;20226;-64
2021/12/20 06:56:19;;;;;;;84.20;15.90;;;;;;;;;;5091313;28;20699;-64
2021/12/20 06:58:46;;;;;;;87.35;17.52;;;;;;;;;;5091337;28;20216;-64
2021/12/20 07:01:13;;;;;;;86.28;17.80;;;;;;;;;;5091372;28;20224;-65
2021/12/20 07:03:40;;;;;;;87.75;17.67;;;;;;;;;;5091500;28;20210;-64
2021/12/20 07:06:07;;;;;;;84.15;16.55;;;;;;;;;;5091497;28;20291;-65
2021/12/20 07:08:34;;;;;;;89.25;17.08;;;;;;;;;;5094680;28;20208;-64
2021/12/20 07:11:05;;;;;;;81.75;15.15;;;;;;;;;;5095217;28;20311;-64
2021/12/20 07:13:32;;;;;;;87.60;17.48;;;;;;;;;;5095523;28;20245;-64
2021/12/20 07:15:59;;;;;;;84.82;15.98;;;;;;;;;;5075627;28;20244;-66
2021/12/20 07:18:26;;;;;;;81.93;14.57;;;;;;;;;;5074784;28;20205;-64
2021/12/20 07:20:54;;;;;;;79.22;14.70;;;;;;;;;;5074728;28;20227;-65
2021/12/20 07:23:22;;;;;;;80.05;15.00;;;;;;;;;;5074744;28;20662;-64
2021/12/20 07:25:50;;;;;;;86.60;14.68;;;;;;;;;;5074907;28;20212;-65
2021/12/20 07:28:18;;;;;;;82.43;15.00;;;;;;;;;;5074460;28;20677;-65
2021/12/20 07:30:46;;;;;;;84.43;14.23;;;;;;;;;;5074597;28;20315;-64
2021/12/20 07:33:15;;;;;;;87.35;19.27;;;;;;;;;;5074734;28;20209;-64
2021/12/20 07:35:42;;;;;;;82.97;16.38;;;;;;;;;;5074395;28;20293;-65
2021/12/20 07:38:12;;;;;;;85.93;16.52;;;;;;;;;;5074530;28;20207;-64
2021/12/20 07:40:39;;;;;;;86.70;17.15;;;;;;;;;;5074556;28;20312;-64
2021/12/20 07:43:06;;;;;;;80.75;15.35;;;;;;;;;;5074595;28;20292;-64
2021/12/20 07:45:35;;;;;;;85.25;15.50;;;;;;;;;;5073467;28;20205;-64
2021/12/20 07:48:02;;;;;;;85.10;14.90;;;;;;;;;;5094257;28;20300;-64
2021/12/20 07:50:30;;;;;;;84.15;16.15;;;;;;;;;;5094213;28;20230;-64
2021/12/20 07:52:57;;;;;;;82.15;14.35;;;;;;;;;;5094765;28;20584;-64
2021/12/20 07:55:24;;;;;;;85.00;16.45;;;;;;;;;;5094623;28;20567;-64
2021/12/20 07:57:51;;;;;;;80.75;14.23;;;;;;;;;;5094089;28;20698;-64
2021/12/20 08:00:19;;;;;;;82.78;13.40;;;;;;;;;;5094699;28;20223;-65
2021/12/20 08:02:47;;;;;;;88.47;16.00;;;;;;;;;;5094257;28;20211;-64
2021/12/20 08:05:15;;;;;;;84.97;16.83;;;;;;;;;;5094138;28;20208;-65
2021/12/20 08:07:45;;;;;;;86.88;15.05;;;;;;;;;;5094044;28;20207;-64
2021/12/20 08:10:12;;;;;;;81.75;15.13;;;;;;;;;;5094420;28;20236;-64
2021/12/20 08:12:39;;;;;;;81.97;15.18;;;;;;;;;;5094109;28;20211;-65
2021/12/20 08:15:07;;;;;;;85.53;16.13;;;;;;;;;;5094106;28;20226;-63
2021/12/20 08:17:34;;;;;;;77.82;14.27;;;;;;;;;;5091072;28;20291;-64
2021/12/20 08:20:03;;;;;;;80.28;14.32;;;;;;;;;;5094124;28;20254;-65
2021/12/20 08:22:30;;;;;;;74.82;13.25;;;;;;;;;;5093913;28;20208;-64
2021/12/20 08:24:57;;;;;;;82.53;16.00;;;;;;;;;;5093906;28;20302;-64
2021/12/20 08:27:25;;;;;;;85.05;17.30;;;;;;;;;;5093609;28;20262;-64
2021/12/20 08:29:52;;;;;;;77.90;15.25;;;;;;;;;;5093654;28;20619;-64
2021/12/20 08:32:19;;;;;;;85.07;16.02;;;;;;;;;;5093964;28;20310;-64
2021/12/20 08:34:46;;;;;;;79.30;14.75;;;;;;;;;;5093969;28;20287;-64
2021/12/20 08:37:15;;;;;;;82.07;16.75;;;;;;;;;;5093482;28;20690;-64
2021/12/20 08:39:42;;;;;;;78.03;12.98;;;;;;;;;;5093555;28;20216;-64
2021/12/20 08:42:09;;;;;;;77.43;14.75;;;;;;;;;;5093678;28;20204;-63
2021/12/20 08:44:37;;;;;;;79.70;15.70;;;;;;;;;;5093430;28;20286;-64
2021/12/20 08:47:04;;;;;;;84.57;15.35;;;;;;;;;;5093706;28;20243;-65
2021/12/20 08:49:31;;;;;;;82.13;14.90;;;;;;;;;;5093230;28;20311;-64
2021/12/20 08:52:00;;;;;;;86.47;16.65;;;;;;;;;;5093707;28;20211;-63
2021/12/20 08:54:29;;;;;;;76.47;14.15;;;;;;;;;;5092097;28;20253;-64
2021/12/20 08:56:56;;;;;;;81.38;15.32;;;;;;;;;;5093169;28;20210;-66
2021/12/20 08:59:23;;;;;;;76.80;14.27;;;;;;;;;;5093155;28;20208;-64
2021/12/20 09:01:50;;;;;;;80.43;15.55;;;;;;;;;;5093405;28;20227;-64
2021/12/20 09:04:18;;;;;;;79.22;15.50;;;;;;;;;;5093017;28;20698;-65
2021/12/20 09:06:45;;;;;;;85.47;14.93;;;;;;;;;;5093341;28;20291;-65
2021/12/20 09:09:13;;;;;;;83.90;17.63;;;;;;;;;;5092903;28;20598;-65
2021/12/20 09:11:42;;;;;;;80.97;14.57;;;;;;;;;;5093166;28;20235;-65
2021/12/20 09:14:09;;;;;;;83.93;16.40;;;;;;;;;;5093481;28;20258;-65
2021/12/20 09:16:37;;;;;;;82.18;16.70;;;;;;;;;;5093271;28;20578;-65
2021/12/20 09:19:04;;;;;;;82.53;15.57;;;;;;;;;;5093204;28;20567;-65
2021/12/20 09:21:31;;;;;;;83.22;15.30;;;;;;;;;;5093169;28;20316;-65
2021/12/20 09:23:58;;;;;;;80.78;15.65;;;;;;;;;;5092612;28;20591;-65
2021/12/20 09:26:25;;;;;;;79.30;14.60;;;;;;;;;;5080069;28;20211;-64
2021/12/20 09:28:54;;;;;;;81.35;15.20;;;;;;;;;;5072103;28;20620;-63
2021/12/20 09:31:21;;;;;;;75.93;14.20;;;;;;;;;;5071993;28;20228;-65
2021/12/20 09:33:48;;;;;;;85.00;15.98;;;;;;;;;;5072323;28;20690;-63
2021/12/20 09:36:15;;;;;;;81.93;15.20;;;;;;;;;;5072111;28;20243;-64
2021/12/20 09:38:42;;;;;;;81.93;15.20;;;;;;;;;;5071750;28;20281;-64
2021/12/20 09:41:17;;;;;;;82.85;15.45;;;;;;;;;;5072265;28;20316;-64
2021/12/20 09:43:46;;;;;;;79.30;14.68;;;;;;;;;;5072465;28;20239;-64
2021/12/20 09:46:15;;;;;;;78.15;14.90;;;;;;;;;;5072121;28;20642;-65
2021/12/20 09:48:44;;;;;;;85.18;16.17;;;;;;;;;;5071881;28;20295;-64
2021/12/20 09:51:11;;;;;;;83.63;14.95;;;;;;;;;;5071748;28;20224;-63
2021/12/20 09:53:38;;;;;;;84.68;16.10;;;;;;;;;;5072240;28;20580;-64
2021/12/20 09:56:07;;;;;;;78.05;13.55;;;;;;;;;;5071800;28;20263;-63
2021/12/20 09:58:36;;;;;;;86.90;16.20;;;;;;;;;;5085745;28;20204;-64
2021/12/20 10:01:03;;;;;;;86.45;17.05;;;;;;;;;;5092046;28;20307;-64
2021/12/20 10:03:32;;;;;;;85.00;15.65;;;;;;;;;;5092064;28;20205;-64
2021/12/20 10:05:59;;;;;;;80.15;14.50;;;;;;;;;;5092200;28;20226;-64
2021/12/20 10:08:32;;;;;;;83.85;15.23;;;;;;;;;;5091746;28;20213;-65
2021/12/20 10:11:00;;;;;;;81.25;14.90;;;;;;;;;;5092109;28;20608;-64
2021/12/20 10:13:29;;;;;;;81.10;16.20;;;;;;;;;;5092414;28;20204;-64
2021/12/20 10:15:57;;;;;;;85.38;16.33;;;;;;;;;;5091938;28;20652;-64
2021/12/20 10:18:24;;;;;;;82.15;16.30;;;;;;;;;;5091457;28;20673;-63
2021/12/20 10:20:53;;;;;;;81.93;15.40;;;;;;;;;;5091974;28;20311;-64
2021/12/20 10:23:22;;;;;;;85.90;15.63;;;;;;;;;;5091778;28;20747;-65
2021/12/20 10:25:52;;;;;;;77.47;13.40;;;;;;;;;;5091712;28;20528;-65
2021/12/20 10:28:19;;;;;;;74.67;13.53;;;;;;;;;;5088249;28;20450;-65
2021/12/20 10:30:47;;;;;;;77.27;11.87;;;;;;;;;;5071256;28;20578;-65
2021/12/20 10:33:15;;;;;;;76.40;13.00;;;;;;;;;;5071499;28;20450;-66
2021/12/20 10:35:44;;;;;;;78.37;14.37;;;;;;;;;;5071662;28;20442;-66
2021/12/20 10:38:23;;;;;;;76.27;14.20;;;;;;;;;;5071377;28;20447;-66
2021/12/20 10:40:52;;;;;;;80.27;15.43;;;;;;;;;;5072326;28;21033;-65
2021/12/20 10:43:21;;;;;;;77.60;15.67;;;;;;;;;;5075362;28;20454;-66
2021/12/20 10:45:48;;;;;;;80.00;15.50;;;;;;;;;;5075690;28;20451;-65
2021/12/20 10:48:15;;;;;;;81.57;13.87;;;;;;;;;;5075275;28;20486;-64
2021/12/20 10:50:45;;;;;;;79.63;14.53;;;;;;;;;;5075415;28;20497;-65
2021/12/20 10:53:17;;;;;;;78.03;14.13;;;;;;;;;;5075514;28;20442;-64
2021/12/20 10:55:46;;;;;;;79.37;15.50;;;;;;;;;;5075072;28;20530;-65
2021/12/20 10:58:19;;;;;;;79.90;14.60;;;;;;;;;;5075151;28;20541;-66
2021/12/20 11:00:46;;;;;;;73.30;13.60;;;;;;;;;;5074258;28;20550;-65
2021/12/20 11:03:24;;;;;;;77.77;13.83;;;;;;;;;;5075232;28;20538;-64
2021/12/20 11:11:23;;;;;;;73.20;13.50;;;;;;;;;;5074970;28;20504;-65
2021/12/20 11:13:50;;;;;;;75.33;12.87;;;;;;;;;;5075253;28;20541;-65
2021/12/20 11:16:28;;;;;;;78.07;13.43;;;;;;;;;;5074855;28;20457;-66
2021/12/20 11:19:10;;;;;;;79.20;14.20;;;;;;;;;;5074526;28;20455;-65
2021/12/20 11:21:38;;;;;;;79.83;13.73;;;;;;;;;;5075211;28;20476;-64
2021/12/20 11:24:12;;;;;;;76.40;12.40;;;;;;;;;;5074816;28;20465;-64
2021/12/20 11:26:40;;;;;;;78.30;13.30;;;;;;;;;;5074643;28;20457;-64
2021/12/20 11:29:08;;;;;;;76.60;12.63;;;;;;;;;;5074306;28;20806;-64
2021/12/20 11:31:35;;;;;;;75.70;13.40;;;;;;;;;;5074686;28;20488;-63
2021/12/20 11:34:03;;;;;;;72.83;11.80;;;;;;;;;;5074579;28;20452;-66
2021/12/20 11:36:30;;;;;;;75.10;13.47;;;;;;;;;;5074628;28;20452;-64
2021/12/20 11:38:58;;;;;;;80.57;13.70;;;;;;;;;;5074325;28;20954;-65
2021/12/20 11:41:26;;;;;;;75.80;12.40;;;;;;;;;;5074514;28;20465;-64
2021/12/20 11:43:55;;;;;;;78.57;13.13;;;;;;;;;;5074293;28;20532;-63
2021/12/20 11:46:23;;;;;;;81.45;13.05;;;;;;;;;;5074638;28;20463;-64
2021/12/20 11:48:52;;;;;;;78.10;13.25;;;;;;;;;;5074234;28;20317;-63
2021/12/20 11:51:19;;;;;;;79.65;15.50;;;;;;;;;;5074288;28;20233;-65
2021/12/20 11:53:46;;;;;;;72.87;12.93;;;;;;;;;;5073474;28;20206;-64
2021/12/20 11:56:13;;;;;;;77.87;14.00;;;;;;;;;;5074098;28;20466;-65
2021/12/20 11:58:47;;;;;;;79.57;12.57;;;;;;;;;;5074181;28;20452;-64
2021/12/20 12:01:18;;;;;;;75.85;13.00;;;;;;;;;;5074514;28;20486;-63
2021/12/20 12:03:52;;;;;;;73.93;11.38;;;;;;;;;;5073969;28;20210;-64
2021/12/20 12:06:24;;;;;;;70.88;12.30;;;;;;;;;;5074191;28;20230;-64
2021/12/20 12:08:57;;;;;;;76.28;12.38;;;;;;;;;;5079310;28;20213;-64
2021/12/20 12:11:32;;;;;;;79.95;13.30;;;;;;;;;;5094356;28;20234;-64
2021/12/20 12:14:08;;;;;;;75.13;11.43;;;;;;;;;;5094230;28;20213;-64
2021/12/20 12:16:50;;;;;;;73.47;10.83;;;;;;;;;;5093986;28;20210;-64
2021/12/20 12:19:37;;;;;;;76.47;11.35;;;;;;;;;;5093699;28;20624;-64
2021/12/20 12:22:04;;;;;;;72.53;10.70;;;;;;;;;;5094175;28;20622;-64
2021/12/20 12:24:45;;;;;;;72.73;9.57;;;;;;;;;;5093788;28;20460;-64
2021/12/20 12:27:21;;;;;;;71.17;8.57;;;;;;;;;;5093686;28;20451;-65
2021/12/20 12:30:10;;;;;;;71.50;9.40;;;;;;;;;;5093713;28;20908;-65
2021/12/20 12:32:37;;;;;;;66.87;8.23;;;;;;;;;;5093706;28;20442;-65
2021/12/20 12:35:06;;;;;;;68.27;7.67;;;;;;;;;;5093419;28;20537;-65
2021/12/20 12:37:37;;;;;;;68.83;7.90;;;;;;;;;;5092775;28;20438;-65
2021/12/20 12:40:19;;;;;;;70.40;9.67;;;;;;;;;;5091269;28;20853;-65
2021/12/20 12:42:49;;;;;;;66.40;8.10;;;;;;;;;;5093452;28;20438;-65
2021/12/20 12:45:17;;;;;;;72.43;9.33;;;;;;;;;;5093816;28;20443;-65
2021/12/20 12:47:44;;;;;;;67.47;8.20;;;;;;;;;;5093235;28;20502;-65
2021/12/20 12:50:25;;;;;;;68.17;7.87;;;;;;;;;;5093217;28;20540;-65
2021/12/20 12:52:52;;;;;;;69.13;8.70;;;;;;;;;;5093615;28;20545;-65
2021/12/20 12:55:30;;;;;;;75.80;8.13;;;;;;;;;;5093387;28;20442;-65
2021/12/20 12:57:57;;;;;;;68.57;8.37;;;;;;;;;;5093069;28;20452;-65
2021/12/20 13:00:30;;;;;;;70.07;9.37;;;;;;;;;;5093292;28;20461;-66
2021/12/20 13:03:14;;;;;;;69.40;8.40;;;;;;;;;;5093130;28;20880;-65
2021/12/20 13:05:42;;;;;;;68.50;7.80;;;;;;;;;;5092203;28;20470;-65
2021/12/20 13:08:10;;;;;;;68.50;8.23;;;;;;;;;;5092743;28;20446;-65
2021/12/20 13:10:39;;;;;;;66.87;7.83;;;;;;;;;;5093004;28;20459;-65
2021/12/20 13:13:10;;;;;;;66.00;6.80;;;;;;;;;;5090682;28;20457;-65
2021/12/20 13:15:41;;;;;;;69.10;7.40;;;;;;;;;;5093210;28;20812;-66
2021/12/20 13:18:11;;;;;;;69.13;8.37;;;;;;;;;;5092652;28;20447;-65
2021/12/20 13:20:45;;;;;;;68.03;7.80;;;;;;;;;;5092927;28;20474;-61
2021/12/20 13:23:15;;;;;;;64.23;7.47;;;;;;;;;;5092938;28;20447;-65
2021/12/20 13:25:45;;;;;;;64.47;6.47;;;;;;;;;;5092571;28;20545;-65
2021/12/20 13:28:13;;;;;;;62.77;6.17;;;;;;;;;;5092646;28;20461;-65
2021/12/20 13:30:45;;;;;;;64.77;6.83;;;;;;;;;;5092712;28;20553;-65
2021/12/20 13:33:12;;;;;;;69.07;6.90;;;;;;;;;;5092629;28;20448;-65
2021/12/20 13:35:40;;;;;;;67.80;6.30;;;;;;;;;;5092539;28;20889;-63
2021/12/20 13:38:12;;;;;;;63.50;5.90;;;;;;;;;;5092212;28;20824;-63
2021/12/20 13:40:44;;;;;;;62.93;5.53;;;;;;;;;;5092422;28;20556;-63
2021/12/20 13:43:11;;;;;;;67.77;6.03;;;;;;;;;;5092778;28;20449;-65
2021/12/20 13:45:39;;;;;;;62.83;6.70;;;;;;;;;;5075794;28;20948;-64
2021/12/20 13:48:07;;;;;;;64.10;6.43;;;;;;;;;;5071942;28;20821;-66
2021/12/20 13:50:34;;;;;;;66.47;6.60;;;;;;;;;;5071986;28;20840;-66
2021/12/20 13:53:01;;;;;;;64.47;6.10;;;;;;;;;;5071853;28;20486;-64
2021/12/20 13:55:28;;;;;;;64.13;5.87;;;;;;;;;;5072178;28;20448;-65
2021/12/20 13:57:57;;;;;;;63.10;5.30;;;;;;;;;;5071688;28;20484;-63
2021/12/20 14:00:24;;;;;;;63.67;6.30;;;;;;;;;;5071957;28;20467;-64
2021/12/20 14:02:52;;;;;;;61.70;5.40;;;;;;;;;;5071964;28;20439;-63
2021/12/20 14:05:20;;;;;;;72.07;7.80;;;;;;;;;;5071644;28;20829;-63
2021/12/20 14:07:48;;;;;;;68.27;7.43;;;;;;;;;;5071596;28;20449;-63
2021/12/20 14:10:16;;;;;;;66.67;8.00;;;;;;;;;;5071834;28;20823;-62
2021/12/20 14:12:45;;;;;;;67.30;6.27;;;;;;;;;;5071747;28;21089;-63
2021/12/20 14:15:16;;;;;;;65.80;6.97;;;;;;;;;;5071706;28;20863;-65
2021/12/20 14:18:00;;;;;;;65.97;6.30;;;;;;;;;;5087261;28;20454;-64
2021/12/20 14:20:38;;;;;;;64.83;5.90;;;;;;;;;;5092020;28;20470;-64
2021/12/20 14:23:06;;;;;;;61.70;5.73;;;;;;;;;;5091951;28;20525;-64
2021/12/20 14:25:35;;;;;;;64.17;6.40;;;;;;;;;;5091683;28;20455;-65
2021/12/20 14:28:08;;;;;;;64.73;6.23;;;;;;;;;;5091476;28;20950;-64
2021/12/20 14:30:37;;;;;;;61.33;5.30;;;;;;;;;;5091709;28;20565;-65
2021/12/20 14:33:20;;;;;;;63.53;6.50;;;;;;;;;;5091786;28;20485;-64
2021/12/20 14:35:52;;;;;;;63.20;6.17;;;;;;;;;;5091652;28;20450;-64
2021/12/20 14:38:29;;;;;;;63.40;5.77;;;;;;;;;;5091468;28;20442;-65
2021/12/20 14:40:57;;;;;;;66.40;5.90;;;;;;;;;;5091529;28;20541;-65